Time;durP1;ratioP1;P1;durP2;ratioP2;P2;SDS_P1;SDS_P2;PMS_P1;PMS_P2;Temp;Humidity;BMP_temperature;BMP_pressure;BME280_temperature;BME280_humidity;BME280_pressure;Samples;Min_cycle;Max_cycle;Signal;HPM_P1;HPM_P2
2022/05/25 00:00:30;;;;;;;7.45;2.67;;;;;;;10.46;nan;98219.09;10398353;28;20059;-78
2022/05/25 00:05:32;;;;;;;5.47;2.60;;;;;;;10.33;nan;98167.06;10438187;28;20041;-76
2022/05/25 00:10:34;;;;;;;6.65;3.15;;;;;;;10.25;nan;98145.44;10399727;28;20060;-77
2022/05/25 00:15:35;;;;;;;4.97;2.95;;;;;;;10.15;nan;98100.34;10438118;28;20041;-76
2022/05/25 00:20:37;;;;;;;7.13;2.92;;;;;;;10.05;nan;98070.94;10437581;28;20563;-77
2022/05/25 00:25:40;;;;;;;5.35;3.20;;;;;;;9.95;nan;98030.22;10431416;28;20705;-76
2022/05/25 00:30:44;;;;;;;6.15;3.60;;;;;;;9.89;nan;98006.84;10437114;28;20140;-76
2022/05/25 00:35:46;;;;;;;6.32;3.28;;;;;;;9.80;nan;97970.50;10437919;28;20037;-75
2022/05/25 00:40:47;;;;;;;5.57;3.58;;;;;;;9.72;nan;97952.41;10434083;28;20068;-76
2022/05/25 00:45:54;;;;;;;5.78;3.00;;;;;;;9.67;nan;97928.16;10428237;28;20045;-77
2022/05/25 00:51:12;;;;;;;8.43;3.72;;;;;;;9.59;nan;97899.56;10437883;28;20049;-76
2022/05/25 00:56:17;;;;;;;6.90;3.30;;;;;;;9.50;nan;97879.78;10445340;28;20037;-76
2022/05/25 01:01:18;;;;;;;6.88;3.58;;;;;;;9.41;nan;97833.00;10444251;28;20049;-76
2022/05/25 01:06:41;;;;;;;7.72;4.15;;;;;;;9.32;nan;97808.00;10438410;28;20051;-75
2022/05/25 01:12:01;;;;;;;6.97;3.90;;;;;;;9.23;nan;97770.81;10419401;28;20052;-76
2022/05/25 01:17:24;;;;;;;6.72;3.97;;;;;;;9.17;nan;97746.59;10432623;28;20041;-76
2022/05/25 01:22:44;;;;;;;6.95;3.53;;;;;;;9.10;nan;97723.28;10436644;28;20040;-76
2022/05/25 01:27:48;;;;;;;7.40;4.32;;;;;;;9.03;nan;97702.53;10429755;28;20076;-75
2022/05/25 01:33:13;;;;;;;6.97;3.95;;;;;;;8.93;nan;97664.56;10430460;28;20045;-76
2022/05/25 01:38:50;;;;;;;7.70;4.07;;;;;;;8.88;nan;97653.38;10443346;28;20079;-75
2022/05/25 01:44:04;;;;;;;9.80;4.55;;;;;;;8.81;nan;97628.31;10383909;28;20049;-76
2022/05/25 01:49:10;;;;;;;7.80;4.70;;;;;;;8.77;nan;97611.06;10436572;28;20040;-76
2022/05/25 01:54:16;;;;;;;7.90;4.93;;;;;;;8.71;nan;97590.34;10442193;28;20513;-75
2022/05/25 01:59:19;;;;;;;8.82;5.18;;;;;;;8.64;nan;97569.63;10417671;28;20068;-75
2022/05/25 02:04:21;;;;;;;9.32;5.65;;;;;;;8.61;nan;97556.66;10435718;28;20053;-76
2022/05/25 02:09:38;;;;;;;9.10;6.03;;;;;;;8.57;nan;97555.06;10442526;28;20045;-75
2022/05/25 02:14:54;;;;;;;10.75;6.15;;;;;;;8.54;nan;97544.72;10434629;28;20586;-75
2022/05/25 02:20:05;;;;;;;9.88;6.75;;;;;;;8.52;nan;97528.25;10437987;28;20567;-76
2022/05/25 02:25:14;;;;;;;10.60;7.07;;;;;;;8.51;nan;97525.66;10423928;28;20048;-76
2022/05/25 02:30:20;;;;;;;10.33;7.13;;;;;;;8.49;nan;97528.31;10410377;28;21499;-76
2022/05/25 02:35:24;;;;;;;10.25;7.28;;;;;;;8.48;nan;97526.59;10440747;28;20045;-75
2022/05/25 02:40:28;;;;;;;11.43;6.93;;;;;;;8.47;nan;97530.97;10419686;28;20046;-76
2022/05/25 02:45:30;;;;;;;16.08;7.57;;;;;;;8.48;nan;97526.59;10438073;28;20394;-76
2022/05/25 02:50:32;;;;;;;12.43;7.90;;;;;;;8.45;nan;97530.16;10434469;28;20436;-76
2022/05/25 02:55:33;;;;;;;12.07;8.13;;;;;;;8.42;nan;97513.69;10440266;28;20496;-73
2022/05/25 03:00:35;;;;;;;11.50;9.05;;;;;;;8.40;nan;97510.28;10419402;28;20509;-74
2022/05/25 03:05:36;;;;;;;12.13;8.52;;;;;;;8.40;nan;97512.91;10433377;28;20528;-73
2022/05/25 03:10:40;;;;;;;15.70;9.13;;;;;;;8.39;nan;97511.16;10426219;28;20052;-74
2022/05/25 03:15:42;;;;;;;13.73;9.65;;;;;;;8.38;nan;97510.31;10401189;28;20103;-74
2022/05/25 03:20:44;;;;;;;14.23;10.48;;;;;;;8.39;nan;97524.22;10432518;28;20171;-74
2022/05/25 03:25:46;;;;;;;14.32;10.25;;;;;;;8.39;nan;97526.81;10402017;28;20555;-73
2022/05/25 03:30:48;;;;;;;13.40;9.82;;;;;;;8.37;nan;97524.25;10437657;28;20037;-73
2022/05/25 03:35:50;;;;;;;12.85;9.82;;;;;;;8.34;nan;97502.63;10438391;28;20135;-73
2022/05/25 03:40:52;;;;;;;13.60;9.77;;;;;;;8.36;nan;97516.47;10424626;28;20048;-73
2022/05/25 03:45:53;;;;;;;14.57;10.55;;;;;;;8.36;nan;97524.28;10420543;28;20048;-74
2022/05/25 03:50:55;;;;;;;15.10;10.02;;;;;;;8.42;nan;97555.41;10417690;28;20041;-72
2022/05/25 03:55:57;;;;;;;15.98;10.52;;;;;;;8.45;nan;97568.41;10436539;28;20598;-74
2022/05/25 04:00:58;;;;;;;14.18;10.70;;;;;;;8.50;nan;97595.22;10428758;28;20045;-73
2022/05/25 04:06:00;;;;;;;16.30;11.38;;;;;;;8.55;nan;97611.59;10431274;28;20056;-73
2022/05/25 04:11:01;;;;;;;17.30;11.02;;;;;;;8.59;nan;97634.13;10437175;28;20052;-74
2022/05/25 04:16:04;;;;;;;14.88;11.52;;;;;;;8.66;nan;97663.50;10436054;28;20045;-75
2022/05/25 04:21:05;;;;;;;16.40;11.65;;;;;;;8.81;nan;97730.06;10438178;28;20068;-73
2022/05/25 04:26:07;;;;;;;15.52;11.50;;;;;;;9.03;nan;97816.53;10439662;28;20040;-74
2022/05/25 04:31:09;;;;;;;20.17;11.35;;;;;;;9.12;nan;97855.47;10436464;28;20037;-74
2022/05/25 04:36:10;;;;;;;17.58;11.60;;;;;;;9.15;nan;97871.03;10437613;28;20049;-74
2022/05/25 04:41:12;;;;;;;15.10;11.70;;;;;;;9.18;nan;97877.97;10441061;28;20051;-74
2022/05/25 04:46:14;;;;;;;16.15;11.32;;;;;;;9.21;nan;97898.78;10427634;28;20044;-74
2022/05/25 04:51:16;;;;;;;17.85;10.88;;;;;;;9.28;nan;97936.91;10434617;28;20048;-74
2022/05/25 05:01:38;;;;;;;;;;;;;;;9.51;nan;98032.16;10436619;28;20049;-74
2022/05/25 05:06:39;;;;;;;18.23;11.80;;;;;;;9.60;nan;98076.34;10433477;28;20010;-75
2022/05/25 05:11:43;;;;;;;16.15;11.98;;;;;;;9.75;nan;98139.63;10435924;28;20053;-74
2022/05/25 05:16:45;;;;;;;16.98;12.02;;;;;;;9.94;nan;98219.34;10424171;28;20037;-74
2022/05/25 05:21:58;;;;;;;17.38;11.65;;;;;;;10.15;nan;98300.81;10412060;28;20415;-75
2022/05/25 05:27:01;;;;;;;17.58;11.55;;;;;;;10.54;nan;98457.91;10437405;28;20049;-75
2022/05/25 05:32:03;;;;;;;14.57;9.65;;;;;;;10.93;nan;98620.31;10436002;28;20045;-75
2022/05/25 05:37:10;;;;;;;15.10;10.60;;;;;;;11.18;nan;98727.22;10443170;28;20053;-75
2022/05/25 05:42:19;;;;;;;16.20;10.35;;;;;;;11.45;nan;98851.63;10442080;28;20888;-75
2022/05/25 05:47:36;;;;;;;14.70;9.38;;;;;;;11.55;nan;98896.91;10442841;28;20056;-76
2022/05/25 05:52:38;;;;;;;14.02;9.18;;;;;;;11.50;nan;98883.88;10416983;28;20041;-79
2022/05/25 05:57:40;;;;;;;14.02;9.77;;;;;;;11.55;nan;98902.13;10430357;28;20059;-79
2022/05/25 06:02:42;;;;;;;14.60;9.90;;;;;;;11.65;nan;98946.50;10445139;28;20055;-76
2022/05/25 06:07:44;;;;;;;14.52;9.35;;;;;;;11.74;nan;98987.44;10432568;28;20072;-76
2022/05/25 06:12:47;;;;;;;15.82;9.75;;;;;;;11.84;nan;99031.00;10430943;28;20040;-77
2022/05/25 06:23:09;;;;;;;15.38;9.23;;;;;;;12.55;nan;99328.22;10437530;28;20048;-75
2022/05/25 06:28:11;;;;;;;15.38;9.05;;;;;;;13.22;nan;99604.88;10409188;28;20053;-76
2022/05/25 06:33:12;;;;;;;14.20;7.47;;;;;;;13.47;nan;99715.06;10441971;28;20053;-76
2022/05/25 06:38:14;;;;;;;12.00;7.38;;;;;;;13.71;nan;99820.88;10407680;28;20053;-75
2022/05/25 06:43:16;;;;;;;11.90;7.22;;;;;;;14.16;nan;100021.28;10438140;28;20037;-78
2022/05/25 06:48:18;;;;;;;11.23;6.22;;;;;;;14.74;nan;100262.25;10425066;28;20045;-79
2022/05/25 06:53:19;;;;;;;11.43;6.10;;;;;;;15.17;nan;100445.56;10408243;28;20414;-77
2022/05/25 06:58:21;;;;;;;9.95;5.28;;;;;;;15.81;nan;100717.88;10443136;28;20049;-77
2022/05/25 07:03:22;;;;;;;9.02;4.80;;;;;;;15.81;nan;100717.88;10437725;28;20045;-77
2022/05/25 07:08:25;;;;;;;7.60;4.05;;;;;;;16.05;nan;100819.84;10416660;28;20147;-77
2022/05/25 07:13:29;;;;;;;7.90;4.13;;;;;;;16.34;nan;100950.91;10427987;28;20160;-78
2022/05/25 07:18:31;;;;;;;8.68;4.47;;;;;;;16.81;nan;101152.53;10453345;28;20099;-77
2022/05/25 07:23:38;;;;;;;8.45;4.43;;;;;;;16.69;nan;101101.44;10425182;28;20050;-80
2022/05/25 07:28:40;;;;;;;10.23;3.90;;;;;;;17.06;nan;101260.06;10435432;28;20046;-78
2022/05/25 07:33:44;;;;;;;7.95;4.22;;;;;;;17.59;100.00;101484.97;10458423;28;20045;-77
2022/05/25 07:38:51;;;;;;;5.85;3.20;;;;;;;-147.53;100.00;57128.34;10435165;28;20073;-79
2022/05/25 07:43:57;;;;;;;5.50;2.92;;;;;;;17.59;nan;101484.97;10424640;28;20053;-78
2022/05/25 07:48:59;;;;;;;6.80;3.20;;;;;;;17.98;nan;101655.41;10443449;28;20045;-77
2022/05/25 07:54:02;;;;;;;7.03;3.58;;;;;;;17.87;nan;101588.25;10439230;28;20045;-78
2022/05/25 07:59:12;;;;;;;6.78;3.20;;;;;;;18.46;nan;101840.97;10450653;28;20060;-79
2022/05/25 08:09:36;;;;;;;5.93;2.85;;;;;;;19.18;nan;102156.91;10462112;28;20075;-78
2022/05/25 08:14:38;;;;;;;7.05;3.38;;;;;;;19.20;nan;102156.91;10436846;28;20472;-78
2022/05/25 08:19:40;;;;;;;6.97;2.90;;;;;;;19.51;nan;102284.53;10465094;28;20052;-78
2022/05/25 08:24:43;;;;;;;7.25;2.25;;;;;;;20.12;nan;102555.06;10435701;28;20067;-78
2022/05/25 08:29:45;;;;;;;6.40;2.50;;;;;;;20.08;nan;102518.69;10427827;28;20064;-79
2022/05/25 08:34:47;;;;;;;3.35;1.85;;;;;;;20.10;nan;102520.47;10406081;28;20519;-83
2022/05/25 08:39:50;;;;;;;4.75;1.75;;;;;;;20.52;nan;102700.69;10433886;28;20048;-81
2022/05/25 08:44:55;;;;;;;4.03;2.45;;;;;;;20.09;nan;102496.53;10444563;28;20060;-80
2022/05/25 08:49:58;;;;;;;6.72;1.90;;;;;;;19.20;nan;102086.13;10443383;28;20694;-81
2022/05/25 08:55:08;;;;;;;3.92;2.03;;;;;;;19.48;nan;102195.06;10431194;28;20047;-81
2022/05/25 09:00:14;;;;;;;3.38;1.98;;;;;;;19.41;nan;102162.31;10425404;28;20487;-78
2022/05/25 09:05:21;;;;;;;4.60;1.92;;;;;;;19.81;nan;102325.41;10451024;28;20474;-80
2022/05/25 09:10:23;;;;;;;5.05;2.10;;;;;;;20.34;nan;102544.50;10435700;28;20063;-76
2022/05/25 09:15:32;;;;;;;2.05;1.30;;;;;;;19.61;nan;102211.94;10413965;28;20068;-76
2022/05/25 09:20:43;;;;;;;5.38;1.52;;;;;;;20.09;nan;102420.31;10415685;28;20051;-74
2022/05/25 09:25:46;;;;;;;2.28;1.25;;;;;;;20.13;nan;102418.53;10448515;28;20374;-80
2022/05/25 09:30:56;;;;;;;3.03;1.10;;;;;;;20.09;nan;102392.84;10439931;28;20045;-77
2022/05/25 09:36:04;;;;;;;4.57;1.10;;;;;;;20.12;nan;102396.38;10433618;28;20041;-82
2022/05/25 09:41:08;;;;;;;3.75;1.65;;;;;;;20.04;nan;102350.28;10441993;28;20791;-79
2022/05/25 09:46:24;;;;;;;3.33;1.20;;;;;;;20.04;nan;102338.75;10453219;28;20484;-78
2022/05/25 09:51:49;;;;;;;2.47;1.40;;;;;;;19.59;nan;102124.25;10426461;28;20136;-75
2022/05/25 09:56:58;;;;;;;3.47;1.30;;;;;;;19.16;nan;101919.75;10424691;28;20029;-76
2022/05/25 10:02:00;;;;;;;4.53;1.20;;;;;;;19.13;nan;101898.53;10393061;28;20387;-74
2022/05/25 10:07:17;;;;;;;4.65;1.10;;;;;;;19.27;nan;101942.75;10430480;28;20153;-74
2022/05/25 10:12:39;;;;;;;2.45;1.23;;;;;;;19.32;nan;101960.47;10424134;28;20048;-72
2022/05/25 10:17:46;;;;;;;3.45;1.25;;;;;;;19.13;nan;101871.09;10431473;28;20056;-73
2022/05/25 10:23:10;;;;;;;5.07;1.30;;;;;;;19.50;nan;102020.66;10399891;28;20128;-73
2022/05/25 10:28:27;;;;;;;3.35;1.45;;;;;;;19.74;nan;102112.75;10412587;28;20061;-79
2022/05/25 10:39:14;;;;;;;2.92;1.40;;;;;;;19.78;nan;102108.34;10416236;28;20045;-78
2022/05/25 10:44:22;;;;;;;2.25;1.10;;;;;;;19.12;nan;101814.44;10416281;28;20438;-78
2022/05/25 10:49:34;;;;;;;5.03;1.40;;;;;;;18.99;nan;101751.66;10435504;28;20060;-78
2022/05/25 10:54:56;;;;;;;1.63;0.90;;;;;;;19.88;nan;102126.06;10427483;28;20041;-79
2022/05/25 11:00:24;;;;;;;3.60;1.30;;;;;;;19.89;nan;102126.94;10417958;28;20052;-78
2022/05/25 11:05:57;;;;;;;3.40;1.30;;;;;;;19.60;nan;101987.00;10415679;28;20302;-75
2022/05/25 11:11:28;;;;;;;5.03;1.20;;;;;;;19.84;nan;102076.44;10425402;28;20056;-78
2022/05/25 11:16:50;;;;;;;5.95;1.10;;;;;;;20.04;nan;102164.19;10422448;28;20045;-77
2022/05/25 11:22:10;;;;;;;1.48;0.90;;;;;;;20.08;nan;102175.69;10438648;28;20432;-74
2022/05/25 11:27:30;;;;;;;3.13;1.08;;;;;;;19.72;nan;102000.25;10424643;28;20116;-75
2022/05/25 11:33:08;;;;;;;4.00;1.23;;;;;;;19.33;nan;101833.88;10431799;28;20089;-76
2022/05/25 11:38:35;;;;;;;3.58;1.20;;;;;;;19.13;nan;101731.28;10432710;28;20056;-77
2022/05/25 11:43:45;;;;;;;3.35;1.30;;;;;;;19.09;nan;101708.28;10394058;28;20045;-76
2022/05/25 11:49:15;;;;;;;4.03;1.10;;;;;;;19.79;nan;102001.16;10408751;28;20044;-76
2022/05/25 11:54:54;;;;;;;3.00;1.25;;;;;;;19.82;nan;102002.94;10436644;28;20421;-82
2022/05/25 12:00:14;;;;;;;2.08;1.00;;;;;;;19.41;nan;101821.44;10430416;28;20743;-78
2022/05/25 12:05:35;;;;;;;4.95;1.13;;;;;;;19.10;nan;101686.16;10419654;28;20505;-76
2022/05/25 12:10:40;;;;;;;4.55;1.10;;;;;;;19.54;nan;101859.50;10416825;28;20052;-76
2022/05/25 12:16:05;;;;;;;1.60;0.90;;;;;;;20.24;nan;102147.31;10415920;28;20060;-76
2022/05/25 12:21:13;;;;;;;7.07;1.50;;;;;;;20.37;nan;102204.94;10439458;28;20082;-77
2022/05/25 12:26:27;;;;;;;2.65;1.63;;;;;;;20.13;nan;102094.13;10441251;28;20053;-79
2022/05/25 12:31:31;;;;;;;5.28;1.67;;;;;;;19.55;nan;101835.56;10425499;28;20503;-73
2022/05/25 12:36:33;;;;;;;10.88;1.80;;;;;;;19.07;nan;101631.31;10423137;28;20122;-76
2022/05/25 12:41:38;;;;;;;4.68;1.65;;;;;;;18.65;nan;101451.97;10438992;28;20058;-74
2022/05/25 12:52:27;;;;;;;1.90;0.85;;;;;;;18.04;nan;101173.13;10444779;28;20508;-74
2022/05/25 12:57:47;;;;;;;2.83;1.00;;;;;;;18.00;nan;101155.53;10440422;28;20079;-76
2022/05/25 13:02:50;;;;;;;3.30;1.13;;;;;;;17.82;nan;101085.84;10432967;28;20040;-76
2022/05/25 13:07:52;;;;;;;5.20;1.20;;;;;;;17.47;nan;100933.47;10438483;28;20055;-75
2022/05/25 13:12:58;;;;;;;8.27;2.30;;;;;;;16.37;nan;100473.50;10430669;28;20052;-76
2022/05/25 13:18:00;;;;;;;8.18;2.20;;;;;;;15.51;nan;100120.78;10427270;28;20045;-75
2022/05/25 13:23:04;;;;;;;7.90;2.70;;;;;;;15.23;nan;100007.72;10423893;28;20497;-74
2022/05/25 13:28:31;;;;;;;6.70;2.80;;;;;;;15.58;nan;100150.56;10423920;28;20229;-75
2022/05/25 13:33:45;;;;;;;4.10;2.03;;;;;;;16.16;nan;100383.94;10431684;28;20045;-75
2022/05/25 13:38:55;;;;;;;5.68;2.20;;;;;;;15.99;nan;100321.66;10423255;28;20044;-76
2022/05/25 13:43:59;;;;;;;4.38;2.30;;;;;;;16.19;nan;100405.91;10436143;28;20113;-75
2022/05/25 13:49:03;;;;;;;3.92;2.00;;;;;;;16.37;nan;100476.13;10407872;28;20064;-76
2022/05/25 13:54:25;;;;;;;6.30;2.10;;;;;;;16.46;nan;100516.59;10438376;28;20040;-76
2022/05/25 13:59:47;;;;;;;3.80;1.92;;;;;;;16.39;nan;100490.22;10422509;28;20040;-76
2022/05/25 14:04:51;;;;;;;6.30;2.10;;;;;;;16.14;nan;100391.00;10442538;28;20173;-76
2022/05/25 14:15:20;;;;;;;5.47;2.65;;;;;;;15.74;nan;100236.56;10412904;28;20112;-76
2022/05/25 14:20:22;;;;;;;5.03;2.60;;;;;;;15.70;nan;100225.19;10435841;28;20061;-72
2022/05/25 14:25:30;;;;;;;6.05;2.72;;;;;;;15.63;nan;100191.84;10413575;28;20779;-72
2022/05/25 14:30:35;;;;;;;8.65;3.10;;;;;;;15.74;nan;100241.84;10429202;28;20045;-72
2022/05/25 14:35:39;;;;;;;9.20;3.25;;;;;;;16.17;nan;100418.28;10437156;28;20048;-72
2022/05/25 14:40:50;;;;;;;5.40;3.08;;;;;;;16.76;nan;100666.91;10435131;28;20040;-73
2022/05/25 14:46:07;;;;;;;7.57;3.15;;;;;;;17.34;nan;100902.72;10437818;28;20033;-72
2022/05/25 14:51:09;;;;;;;8.10;3.38;;;;;;;17.43;nan;100941.41;10421953;28;20075;-73
2022/05/25 14:56:23;;;;;;;9.23;4.15;;;;;;;17.76;nan;101077.97;10440173;28;20404;-74
2022/05/25 15:01:32;;;;;;;8.50;4.25;;;;;;;17.77;nan;101082.34;10438158;28;20053;-73
2022/05/25 15:06:39;;;;;;;12.07;4.07;;;;;;;17.64;nan;101035.69;10435687;28;20043;-74
2022/05/25 15:11:43;;;;;;;8.65;4.82;;;;;;;17.54;nan;100989.00;10412738;28;20081;-77
2022/05/25 15:22:28;;;;;;;9.55;4.18;;;;;;;17.47;nan;100959.94;10441614;28;20123;-74
2022/05/25 15:27:42;;;;;;;7.45;3.95;;;;;;;17.24;nan;100866.63;10441886;28;20506;-77
2022/05/25 15:32:44;;;;;;;9.25;3.67;;;;;;;17.13;nan;100822.63;10425553;28;20055;-77
2022/05/25 15:37:54;;;;;;;8.88;4.03;;;;;;;16.90;nan;100730.28;10454259;28;20048;-75
2022/05/25 15:43:01;;;;;;;11.00;5.47;;;;;;;16.30;nan;100485.03;10426388;28;20045;-74
2022/05/25 15:48:04;;;;;;;8.52;4.63;;;;;;;15.89;nan;100322.66;10436007;28;20584;-74
2022/05/25 15:53:11;;;;;;;7.72;4.18;;;;;;;15.76;nan;100260.31;10413570;28;20506;-74
2022/05/25 15:58:13;;;;;;;6.85;3.78;;;;;;;15.80;nan;100280.53;10424399;28;20060;-75
2022/05/25 16:03:34;;;;;;;6.68;3.47;;;;;;;15.95;nan;100341.06;10399852;28;20049;-73
2022/05/25 16:13:57;;;;;;;8.05;4.00;;;;;;;16.04;nan;100383.19;10446162;28;20041;-76
2022/05/25 16:18:59;;;;;;;7.75;4.30;;;;;;;15.87;nan;100314.75;10446934;28;20521;-75
2022/05/25 16:24:00;;;;;;;8.02;4.03;;;;;;;15.77;nan;100270.84;10432475;28;20123;-75
2022/05/25 16:29:02;;;;;;;8.48;4.05;;;;;;;15.80;nan;100281.41;10438027;28;20044;-75
2022/05/25 16:34:06;;;;;;;5.95;3.60;;;;;;;15.72;nan;100244.50;10441029;28;20045;-75
2022/05/25 16:39:11;;;;;;;7.82;3.42;;;;;;;15.68;nan;100232.25;10447390;28;20095;-77
2022/05/25 16:44:13;;;;;;;7.90;3.60;;;;;;;15.78;nan;100279.66;10404615;28;20044;-77
2022/05/25 16:49:15;;;;;;;8.48;3.72;;;;;;;15.92;nan;100333.19;10438492;28;20044;-77
2022/05/25 16:54:18;;;;;;;5.72;3.60;;;;;;;15.95;nan;100348.97;10433285;28;20047;-74
2022/05/25 16:59:22;;;;;;;6.72;4.00;;;;;;;15.97;nan;100360.38;10424045;28;20051;-80
2022/05/25 17:04:25;;;;;;;7.03;3.63;;;;;;;15.96;nan;100352.47;10433398;28;20041;-79
2022/05/25 17:09:27;;;;;;;7.63;4.10;;;;;;;15.93;nan;100342.84;10437567;28;20056;-75
2022/05/25 17:14:28;;;;;;;9.73;4.00;;;;;;;15.84;nan;100304.22;10431509;28;20857;-79
2022/05/25 17:24:51;;;;;;;7.20;3.42;;;;;;;15.79;nan;100284.06;10435662;28;20068;-73
2022/05/25 17:29:53;;;;;;;5.85;2.78;;;;;;;15.77;nan;100275.25;10431302;28;20069;-74
2022/05/25 17:34:55;;;;;;;6.50;2.90;;;;;;;15.72;nan;100270.91;10442958;28;20540;-75
2022/05/25 17:45:18;;;;;;;7.13;2.78;;;;;;;15.66;nan;100234.03;10442399;28;20381;-75
2022/05/25 17:50:22;;;;;;;6.50;2.60;;;;;;;15.69;nan;100256.88;10436518;28;20055;-74
2022/05/25 17:55:24;;;;;;;8.90;1.90;;;;;;;15.66;nan;100241.94;10429466;28;20228;-75
2022/05/25 18:00:26;;;;;;;5.30;1.40;;;;;;;15.55;nan;100188.44;10442138;28;20055;-74
2022/05/25 18:05:29;;;;;;;2.97;1.33;;;;;;;15.43;nan;100138.47;10418011;28;20040;-73
2022/05/25 18:10:33;;;;;;;4.35;1.63;;;;;;;15.28;nan;100084.16;10435548;28;20751;-75
2022/05/25 18:15:35;;;;;;;6.18;1.80;;;;;;;15.17;nan;100044.75;10435825;28;20045;-74
2022/05/25 18:20:37;;;;;;;5.43;1.58;;;;;;;15.15;nan;100025.44;10423452;28;20448;-75
2022/05/25 18:25:39;;;;;;;4.68;1.33;;;;;;;15.15;nan;100036.00;10403833;28;20040;-75
2022/05/25 18:30:40;;;;;;;5.35;1.40;;;;;;;15.11;nan;100016.69;10440754;28;20124;-75
2022/05/25 18:35:43;;;;;;;3.65;1.50;;;;;;;14.98;nan;99963.28;10440756;28;20424;-75
2022/05/25 18:40:45;;;;;;;10.43;1.70;;;;;;;14.91;nan;99937.03;10440970;28;20069;-74
2022/05/25 18:45:46;;;;;;;5.07;1.50;;;;;;;14.89;nan;99928.25;10434273;28;20052;-74
2022/05/25 18:50:48;;;;;;;5.45;2.00;;;;;;;14.86;nan;99923.88;10439946;28;20061;-75
2022/05/25 18:55:57;;;;;;;13.45;1.75;;;;;;;14.83;63.65;99905.47;10572028;27;20628;-73
2022/05/25 19:00:58;;;;;;;5.32;1.42;;;;;;;14.85;63.65;99928.28;10532897;28;20056;-74
2022/05/25 19:06:00;;;;;;;5.22;1.35;;;;;;;14.85;63.66;99923.03;10433389;28;20045;-72
2022/05/25 19:11:02;;;;;;;5.10;1.15;;;;;;;14.87;63.74;99927.41;10432549;28;20041;-74
2022/05/25 19:16:06;;;;;;;4.25;1.20;;;;;;;14.85;63.82;99916.91;10432223;28;20504;-74
2022/05/25 19:21:11;;;;;;;6.40;1.33;;;;;;;14.83;63.84;99913.38;10425408;28;20103;-74
2022/05/25 19:26:15;;;;;;;5.35;1.30;;;;;;;14.83;63.79;99911.66;10431783;28;20576;-73
2022/05/25 19:31:17;;;;;;;7.68;1.20;;;;;;;14.82;63.73;99906.41;10430540;28;20049;-74
2022/05/25 19:36:24;;;;;;;5.70;0.93;;;;;;;14.83;63.91;99910.75;10425631;28;20566;-74
2022/05/25 19:41:26;;;;;;;5.97;1.17;;;;;;;14.79;63.92;99902.03;10431725;28;20099;-73
2022/05/25 19:46:29;;;;;;;11.43;1.55;;;;;;;14.78;63.79;99894.16;10431345;28;20124;-73
2022/05/25 19:51:30;;;;;;;5.07;1.10;;;;;;;14.74;63.86;99888.06;10429586;28;20857;-73
2022/05/25 19:56:32;;;;;;;4.40;1.23;;;;;;;14.71;64.01;99880.16;10430491;28;20600;-73
2022/05/25 20:01:33;;;;;;;8.05;1.10;;;;;;;14.65;63.80;99857.44;10428998;28;20570;-72
2022/05/25 20:06:35;;;;;;;5.00;0.90;;;;;;;14.54;63.95;99806.63;10406988;28;20057;-74
2022/05/25 20:11:37;;;;;;;6.55;2.08;;;;;;;14.43;63.88;99759.38;10402841;28;20044;-72
2022/05/25 20:16:38;;;;;;;7.32;1.20;;;;;;;14.13;64.01;99651.00;10402420;28;20053;-73
2022/05/25 20:21:40;;;;;;;5.25;1.35;;;;;;;13.72;64.04;99478.00;10402535;28;20046;-71
2022/05/25 20:26:41;;;;;;;6.07;1.13;;;;;;;13.22;63.92;99289.47;10392599;28;20046;-73
2022/05/25 20:31:44;;;;;;;6.32;1.52;;;;;;;13.22;63.92;99289.47;10354236;28;20042;-74
2022/05/25 20:36:50;;;;;;;5.63;1.20;;;;;;;12.87;64.11;99156.97;10389995;28;20080;-75
2022/05/25 20:41:55;;;;;;;5.18;1.13;;;;;;;12.80;64.33;99134.34;10386107;28;20049;-75
2022/05/25 20:46:56;;;;;;;7.65;1.27;;;;;;;12.79;64.44;99127.38;10400378;28;20045;-74
2022/05/25 20:51:59;;;;;;;6.82;1.42;;;;;;;12.76;64.50;99111.66;10399258;28;20049;-76
2022/05/25 20:57:01;;;;;;;7.00;2.05;;;;;;;12.72;64.77;99102.97;10400434;28;20085;-76
2022/05/25 21:02:04;;;;;;;5.13;1.48;;;;;;;12.58;64.85;99057.75;10392641;28;20053;-75
2022/05/25 21:07:06;;;;;;;6.03;2.00;;;;;;;12.50;64.98;99031.59;10399445;28;20049;-74
2022/05/25 21:12:13;;;;;;;3.55;1.42;;;;;;;12.44;65.04;99008.09;10398979;28;20395;-76
2022/05/25 21:17:16;;;;;;;4.70;1.63;;;;;;;12.42;65.25;98993.28;10388470;28;20567;-76
2022/05/25 21:22:17;;;;;;;5.90;1.52;;;;;;;12.39;65.48;98996.81;10399745;28;20050;-76
2022/05/25 21:27:19;;;;;;;5.47;1.55;;;;;;;12.36;65.65;98973.28;10400262;28;20051;-75
2022/05/25 21:37:40;;;;;;;;;;;;;;;12.32;65.96;98976.84;10386312;28;20037;-75
2022/05/25 21:42:42;;;;;;;9.52;2.03;;;;;;;12.27;66.16;98961.19;10398967;28;19932;-73
2022/05/25 21:53:04;;;;;;;;;;;;;;;12.29;66.63;98975.13;10398791;28;20136;-75
2022/05/25 21:58:06;;;;;;;8.27;2.42;;;;;;;12.30;66.79;98978.63;10398723;28;20027;-74
2022/05/25 22:03:08;;;;;;;4.70;1.73;;;;;;;12.30;67.03;98997.00;10385667;28;20041;-76
2022/05/25 22:08:10;;;;;;;5.80;2.10;;;;;;;12.32;67.26;99005.72;10398758;28;20041;-75
2022/05/25 22:13:11;;;;;;;5.78;2.20;;;;;;;12.35;67.50;99018.78;10397882;28;20666;-76
2022/05/25 22:18:13;;;;;;;5.88;2.30;;;;;;;12.29;67.62;99001.38;10398023;28;20049;-77
2022/05/25 22:23:15;;;;;;;5.75;2.33;;;;;;;12.31;67.69;99012.72;10390812;28;20064;-75
2022/05/25 22:28:16;;;;;;;4.30;1.95;;;;;;;12.34;67.93;99030.16;10396455;28;20048;-76
2022/05/25 22:33:18;;;;;;;10.32;3.30;;;;;;;12.34;68.28;99038.03;10396805;28;20081;-75
2022/05/25 22:38:19;;;;;;;6.47;2.30;;;;;;;12.32;68.32;99034.56;10391369;28;20161;-75
2022/05/25 22:43:21;;;;;;;7.97;2.38;;;;;;;12.31;68.51;99030.22;10383853;28;20053;-74
2022/05/25 22:48:23;;;;;;;9.13;2.88;;;;;;;12.32;68.69;99043.31;10396922;28;20433;-74
2022/05/25 22:53:24;;;;;;;7.60;2.83;;;;;;;12.37;69.10;99067.72;10396932;28;20060;-74
2022/05/25 22:58:26;;;;;;;7.82;2.92;;;;;;;12.31;69.27;99054.72;10399473;28;20049;-73
2022/05/25 23:03:28;;;;;;;8.50;3.65;;;;;;;12.30;69.52;99042.47;10399547;28;20045;-74
2022/05/25 23:08:30;;;;;;;9.77;3.58;;;;;;;12.27;69.48;99036.44;10399045;28;20390;-73
2022/05/25 23:13:32;;;;;;;8.82;3.80;;;;;;;12.23;69.94;99035.59;10398734;28;20113;-73
2022/05/25 23:18:34;;;;;;;7.93;3.92;;;;;;;12.26;70.06;99042.56;10399337;28;20041;-75
2022/05/25 23:23:36;;;;;;;8.35;3.88;;;;;;;12.31;70.22;99069.56;10399105;28;20390;-73
2022/05/25 23:33:57;;;;;;;11.38;4.55;;;;;;;12.38;70.53;99111.47;10399899;28;20128;-74
2022/05/25 23:38:59;;;;;;;9.27;4.60;;;;;;;12.41;70.85;99114.91;10402218;28;20420;-74
2022/05/25 23:44:01;;;;;;;14.93;4.85;;;;;;;12.38;70.83;99129.84;10407345;28;20742;-73
2022/05/25 23:49:02;;;;;;;12.07;5.22;;;;;;;12.39;71.28;99128.06;10408907;28;20628;-74
2022/05/25 23:54:04;;;;;;;10.45;5.05;;;;;;;12.37;71.47;99124.63;10407842;28;20048;-73
2022/05/25 23:59:07;;;;;;;11.90;5.38;;;;;;;12.35;71.63;99115.88;10408291;28;20050;-73
